Conde, Brazil
Current Conditions -  °F | °C
As of 3:00 PM on Tuesday 21 Oct 2014 (Local Time) from SBJP Reporting Station
Scattered Clouds Scattered Clouds  
Wind Chill: 84°   Ceiling: Unl
Heat Index: 86°   Visibility: 6mi
Dew Point: 66°   Wind: 13mph
Humidity: 55%   Direction: 120°ESE
Pressure: 29.91"   Gusts: NA
Location:  7.26°S, 34.91°W
Report Text: SBJP 211800Z 12011KT 080V150 9999 SCT035 29/19 Q1013
Loading
Personal Weather Stations






























Interactive Weather Map
Tropical Storm Tracking
New forecast layout! Learn more

10-Day Weather Forecast

Advertisements
Track Severe Weather on mobile